Time;durP1;ratioP1;P1;durP2;ratioP2;P2;SDS_P1;SDS_P2;PMS_P1;PMS_P2;Temp;Humidity;BMP_temperature;BMP_pressure;BME280_temperature;BME280_humidity;BME280_pressure;Samples;Min_cycle;Max_cycle;Signal;HPM_P1;HPM_P2
2023/04/13 00:00:52;;;;;;;;;;;;;;;5.80;76.24;100279.16;107597;1254;65917;-80
2023/04/13 00:03:21;;;;;;;;;;;;;;;5.88;76.38;100279.77;107338;1254;125573;-80
2023/04/13 00:05:50;;;;;;;;;;;;;;;5.94;76.29;100274.25;107668;1258;62002;-79
2023/04/13 00:08:21;;;;;;;;;;;;;;;5.98;76.29;100268.16;107434;1256;124945;-79
2023/04/13 00:10:49;;;;;;;;;;;;;;;6.03;76.22;100267.64;107935;1254;74733;-80
2023/04/13 00:13:17;;;;;;;;;;;;;;;6.07;76.19;100264.99;108131;1254;67101;-80
2023/04/13 00:15:45;;;;;;;;;;;;;;;6.08;76.16;100264.17;107817;1259;126328;-80
2023/04/13 00:18:11;;;;;;;;;;;;;;;6.14;76.20;100266.96;107930;1259;60366;-80
2023/04/13 00:20:42;;;;;;;;;;;;;;;6.17;76.17;100265.33;107392;1254;125336;-81
2023/04/13 00:23:11;;;;;;;;;;;;;;;6.19;76.26;100264.56;107664;1254;77047;-82
2023/04/13 00:25:38;;;;;;;;;;;;;;;6.21;76.09;100261.46;107878;1254;67381;-81
2023/04/13 00:28:05;;;;;;;;;;;;;;;6.23;76.01;100265.72;107487;1257;125401;-81
2023/04/13 00:30:32;;;;;;;;;;;;;;;6.24;76.03;100265.76;107435;1256;61141;-81
2023/04/13 00:33:01;;;;;;;;;;;;;;;6.25;75.89;100260.03;107242;1255;125198;-80
2023/04/13 00:35:28;;;;;;;;;;;;;;;6.27;75.88;100257.15;107305;1254;74378;-81
2023/04/13 00:37:57;;;;;;;;;;;;;;;6.28;75.83;100254.73;107362;1258;64774;-81
2023/04/13 00:40:26;;;;;;;;;;;;;;;6.28;75.76;100250.37;108084;1256;72589;-81
2023/04/13 00:42:53;;;;;;;;;;;;;;;6.29;75.79;100248.84;107403;1254;61376;-80
2023/04/13 00:45:20;;;;;;;;;;;;;;;6.29;75.78;100243.11;107138;1255;124608;-80
2023/04/13 00:47:47;;;;;;;;;;;;;;;6.29;75.77;100240.33;107260;1255;74645;-80
2023/04/13 00:50:18;;;;;;;;;;;;;;;6.23;75.79;100238.55;107360;1255;125463;-80
2023/04/13 00:52:45;;;;;;;;;;;;;;;6.20;75.89;100240.02;107492;1254;72736;-80
2023/04/13 00:55:19;;;;;;;;;;;;;;;6.20;75.99;100238.79;107523;1256;61694;-80
2023/04/13 00:57:48;;;;;;;;;;;;;;;6.20;76.07;100243.84;107371;1255;125348;-80
2023/04/13 01:00:16;;;;;;;;;;;;;;;6.19;76.06;100254.08;107372;1254;74551;-80
2023/04/13 01:02:45;;;;;;;;;;;;;;;6.15;76.08;100262.49;107457;1257;66051;-80
2023/04/13 01:05:15;;;;;;;;;;;;;;;6.13;76.04;100265.02;107353;1254;71350;-80
2023/04/13 01:08:01;;;;;;;;;;;;;;;6.08;76.01;100265.54;107442;1254;61291;-80
2023/04/13 01:10:37;;;;;;;;;;;;;;;6.04;76.00;100268.19;107371;1257;124061;-80
2023/04/13 01:13:23;;;;;;;;;;;;;;;5.98;75.88;100274.44;107537;1258;72644;-80
2023/04/13 01:15:55;;;;;;;;;;;;;;;5.94;76.00;100270.94;107556;1258;123995;-80
2023/04/13 01:18:22;;;;;;;;;;;;;;;5.90;75.94;100264.20;107746;1260;72716;-80
2023/04/13 01:20:49;;;;;;;;;;;;;;;5.86;75.88;100255.86;107692;1257;124370;-80
2023/04/13 01:23:24;;;;;;;;;;;;;;;5.81;75.95;100248.89;107877;1256;59332;-80
2023/04/13 01:25:59;;;;;;;;;;;;;;;5.75;75.89;100239.44;107400;1254;74704;-80
2023/04/13 01:28:26;;;;;;;;;;;;;;;5.66;75.95;100232.86;107607;1257;123540;-80
2023/04/13 01:30:54;;;;;;;;;;;;;;;5.57;76.09;100233.05;107916;1254;72736;-80
2023/04/13 01:33:24;;;;;;;;;;;;;;;5.52;76.30;100237.70;107663;1257;125103;-79
2023/04/13 01:35:51;;;;;;;;;;;;;;;5.51;76.55;100241.86;107759;1259;59973;-80
2023/04/13 01:38:23;;;;;;;;;;;;;;;5.52;76.67;100244.16;107759;1255;124882;-80
2023/04/13 01:40:50;;;;;;;;;;;;;;;5.53;76.68;100242.65;107725;1254;66799;-80
2023/04/13 01:43:18;;;;;;;;;;;;;;;5.54;76.87;100249.83;107530;1256;73442;-80
2023/04/13 01:46:08;;;;;;;;;;;;;;;5.54;76.84;100248.60;107540;1254;125068;-80
2023/04/13 01:48:49;;;;;;;;;;;;;;;5.51;76.72;100248.14;107594;1258;61165;-80
2023/04/13 01:51:18;;;;;;;;;;;;;;;5.49;76.78;100252.40;107419;1261;124858;-80
2023/04/13 01:53:54;;;;;;;;;;;;;;;5.48;76.84;100253.23;107398;1256;65870;-80
2023/04/13 01:56:27;;;;;;;;;;;;;;;5.49;76.88;100255.70;107254;1254;125206;-81
2023/04/13 01:58:58;;;;;;;;;;;;;;;5.50;76.92;100253.34;107468;1257;61333;-81
2023/04/13 02:01:25;;;;;;;;;;;;;;;5.52;76.80;100253.94;107440;1254;60087;-81
2023/04/13 02:03:54;;;;;;;;;;;;;;;5.52;76.86;100252.35;107707;1255;125695;-81
2023/04/13 02:06:21;;;;;;;;;;;;;;;5.53;76.80;100254.11;107620;1257;65809;-81
2023/04/13 02:08:48;;;;;;;;;;;;;;;5.52;76.87;100249.93;107531;1259;125485;-81
2023/04/13 02:11:16;;;;;;;;;;;;;;;5.53;76.83;100252.39;107495;1260;60412;-81
2023/04/13 02:13:44;;;;;;;;;;;;;;;5.57;76.97;100250.09;107821;1254;59532;-82
2023/04/13 02:16:14;;;;;;;;;;;;;;;5.62;77.01;100246.80;107126;1261;124687;-81
2023/04/13 02:18:41;;;;;;;;;;;;;;;5.68;77.19;100247.02;107310;1254;66721;-81
2023/04/13 02:21:10;;;;;;;;;;;;;;;5.76;77.22;100248.16;107359;1257;125468;-81
2023/04/13 02:23:39;;;;;;;;;;;;;;;5.86;77.46;100254.81;107449;1256;59608;-81
2023/04/13 02:26:07;;;;;;;;;;;;;;;5.93;77.31;100250.72;107387;1257;125359;-81
2023/04/13 02:28:34;;;;;;;;;;;;;;;6.00;77.27;100259.36;107616;1254;74698;-81
2023/04/13 02:31:02;;;;;;;;;;;;;;;6.07;77.34;100257.49;107335;1259;65606;-81
2023/04/13 02:33:31;;;;;;;;;;;;;;;6.15;77.36;100257.95;107479;1255;124744;-81
2023/04/13 02:35:59;;;;;;;;;;;;;;;6.23;77.43;100258.76;107531;1256;60331;-81
2023/04/13 02:38:30;;;;;;;;;;;;;;;6.32;77.37;100264.29;107527;1253;125438;-82
2023/04/13 02:40:58;;;;;;;;;;;;;;;6.38;77.29;100267.47;107366;1256;74678;-81
2023/04/13 02:43:32;;;;;;;;;;;;;;;6.47;77.36;100271.59;107565;1262;67078;-81
2023/04/13 02:45:59;;;;;;;;;;;;;;;6.53;77.12;100270.22;107540;1253;125270;-81
2023/04/13 02:48:28;;;;;;;;;;;;;;;6.55;76.92;100268.02;107958;1258;61378;-81
2023/04/13 02:50:55;;;;;;;;;;;;;;;6.58;76.92;100264.46;107633;1254;124569;-81
2023/04/13 02:53:24;;;;;;;;;;;;;;;6.63;76.89;100269.49;107395;1260;73516;-81
2023/04/13 02:55:52;;;;;;;;;;;;;;;6.69;76.85;100274.05;107524;1254;65760;-81
2023/04/13 02:58:20;;;;;;;;;;;;;;;6.74;76.80;100272.84;107602;1259;124701;-81
2023/04/13 03:00:47;;;;;;;;;;;;;;;6.78;76.80;100268.43;107838;1254;59337;-81
2023/04/13 03:03:15;;;;;;;;;;;;;;;6.84;76.79;100267.59;107192;1254;124642;-81
2023/04/13 03:05:44;;;;;;;;;;;;;;;6.88;76.68;100260.73;107690;1254;73344;-80
2023/04/13 03:08:11;;;;;;;;;;;;;;;6.91;76.61;100261.88;107701;1259;125257;-80
2023/04/13 03:10:42;;;;;;;;;;;;;;;6.93;76.61;100271.17;107574;1260;71424;-81
2023/04/13 03:13:11;;;;;;;;;;;;;;;6.96;76.45;100278.23;107668;1259;61013;-81
2023/04/13 03:15:39;;;;;;;;;;;;;;;6.99;76.49;100279.21;107568;1254;125150;-80
2023/04/13 03:18:08;;;;;;;;;;;;;;;7.01;76.40;100280.14;107696;1259;75530;-80
2023/04/13 03:20:35;;;;;;;;;;;;;;;7.01;76.27;100279.09;107738;1259;125090;-80
2023/04/13 03:23:04;;;;;;;;;;;;;;;7.01;76.17;100273.54;107685;1255;70164;-81
2023/04/13 03:25:32;;;;;;;;;;;;;;;7.03;76.24;100275.33;107521;1258;61212;-80
2023/04/13 03:28:00;;;;;;;;;;;;;;;7.05;76.22;100272.95;107857;1254;125334;-80
2023/04/13 03:30:28;;;;;;;;;;;;;;;7.08;76.22;100273.58;107699;1254;74519;-80
2023/04/13 03:32:55;;;;;;;;;;;;;;;7.12;76.24;100277.20;107477;1259;67058;-80
2023/04/13 03:35:22;;;;;;;;;;;;;;;7.18;76.35;100279.30;107664;1254;72672;-80
2023/04/13 03:37:49;;;;;;;;;;;;;;;7.21;76.34;100284.45;107986;1253;60697;-80
2023/04/13 03:40:16;;;;;;;;;;;;;;;7.22;76.19;100285.17;107960;1254;124992;-80
2023/04/13 03:42:43;;;;;;;;;;;;;;;7.22;76.15;100291.46;108090;1258;74396;-80
2023/04/13 03:45:10;;;;;;;;;;;;;;;7.22;76.05;100287.96;107546;1254;125308;-80
2023/04/13 03:47:38;;;;;;;;;;;;;;;7.22;75.97;100281.48;107627;1260;72685;-81
2023/04/13 03:50:05;;;;;;;;;;;;;;;7.23;75.96;100275.80;107573;1259;60341;-81
2023/04/13 03:52:34;;;;;;;;;;;;;;;7.26;75.96;100269.56;108292;1259;125160;-81
2023/04/13 03:55:02;;;;;;;;;;;;;;;7.27;75.93;100268.91;108042;1254;73334;-81
2023/04/13 03:57:30;;;;;;;;;;;;;;;7.24;75.73;100273.02;107506;1259;124677;-80
2023/04/13 03:59:57;;;;;;;;;;;;;;;7.23;75.72;100282.58;108111;1257;71124;-80
2023/04/13 04:02:24;;;;;;;;;;;;;;;7.19;75.69;100291.73;107862;1260;124082;-82
2023/04/13 04:04:51;;;;;;;;;;;;;;;7.16;75.63;100289.70;107640;1254;59987;-80
2023/04/13 04:07:21;;;;;;;;;;;;;;;7.11;75.56;100289.37;107581;1260;74679;-79
2023/04/13 04:09:49;;;;;;;;;;;;;;;7.02;75.52;100288.56;107765;1257;123985;-80
2023/04/13 04:12:16;;;;;;;;;;;;;;;6.95;75.58;100293.73;107898;1253;71440;-81
2023/04/13 04:14:43;;;;;;;;;;;;;;;6.91;75.68;100295.52;107798;1260;124111;-80
2023/04/13 04:17:10;;;;;;;;;;;;;;;6.88;75.71;100293.69;107763;1253;62213;-81
2023/04/13 04:19:37;;;;;;;;;;;;;;;6.85;75.66;100294.63;107570;1254;75147;-81
2023/04/13 04:22:05;;;;;;;;;;;;;;;6.77;75.61;100301.02;107609;1255;123680;-83
2023/04/13 04:24:33;;;;;;;;;;;;;;;6.73;75.78;100303.50;107189;1254;70394;-83
2023/04/13 04:27:00;;;;;;;;;;;;;;;6.73;75.84;100306.12;107336;1254;123909;-81
2023/04/13 04:29:33;;;;;;;;;;;;;;;6.74;75.88;100303.70;107379;1254;60787;-80
2023/04/13 04:32:00;;;;;;;;;;;;;;;6.76;75.97;100299.92;107804;1257;74710;-80
2023/04/13 04:34:27;;;;;;;;;;;;;;;6.81;76.17;100296.44;107684;1260;123831;-79
2023/04/13 04:36:54;;;;;;;;;;;;;;;6.84;76.08;100293.56;107771;1255;73248;-80
2023/04/13 04:39:22;;;;;;;;;;;;;;;6.86;76.00;100296.94;107412;1259;124166;-80
2023/04/13 04:41:53;;;;;;;;;;;;;;;6.88;76.09;100295.27;107778;1254;61257;-82
2023/04/13 04:44:23;;;;;;;;;;;;;;;6.95;76.18;100295.67;107693;1254;124094;-81
2023/04/13 04:46:51;;;;;;;;;;;;;;;7.07;76.27;100299.36;107907;1254;67087;-81
2023/04/13 04:49:20;;;;;;;;;;;;;;;7.16;76.25;100303.67;109131;1254;72711;-81
2023/04/13 04:51:47;;;;;;;;;;;;;;;7.30;76.41;100303.23;109127;1254;123945;-81
2023/04/13 04:54:15;;;;;;;;;;;;;;;7.45;76.35;100298.27;109047;1254;60238;-82
2023/04/13 04:56:43;;;;;;;;;;;;;;;7.63;76.27;100304.20;108869;1253;124663;-80
2023/04/13 04:59:10;;;;;;;;;;;;;;;7.87;76.28;100304.40;109027;1254;67579;-79
2023/04/13 05:01:38;;;;;;;;;;;;;;;8.07;76.10;100303.92;108905;1254;71310;-79
2023/04/13 05:04:06;;;;;;;;;;;;;;;8.29;75.82;100310.11;108889;1254;124064;-82
2023/04/13 05:06:33;;;;;;;;;;;;;;;8.54;75.82;100304.50;107919;1260;61355;-82
2023/04/13 05:09:00;;;;;;;;;;;;;;;8.93;75.98;100305.99;107764;1254;125146;-83
2023/04/13 05:11:34;;;;;;;;;;;;;;;9.23;75.39;100301.81;107608;1260;66336;-86
2023/04/13 05:14:02;;;;;;;;;;;;;;;9.49;75.05;100302.58;107650;1254;71410;-82
2023/04/13 05:16:30;;;;;;;;;;;;;;;9.85;74.72;100298.10;107564;1254;124686;-81
2023/04/13 05:19:06;;;;;;;;;;;;;;;10.10;74.17;100290.36;107564;1253;61369;-81
2023/04/13 05:21:33;;;;;;;;;;;;;;;10.32;73.82;100290.27;107696;1259;124786;-79
2023/04/13 05:24:00;;;;;;;;;;;;;;;10.48;73.42;100289.50;108194;1254;65841;-78
2023/04/13 05:26:29;;;;;;;;;;;;;;;10.58;73.01;100293.02;108052;1254;125129;-79
2023/04/13 05:28:56;;;;;;;;;;;;;;;10.65;72.60;100291.38;108005;1254;62184;-79
2023/04/13 05:31:23;;;;;;;;;;;;;;;10.76;72.37;100286.13;107920;1254;61139;-79
2023/04/13 05:33:50;;;;;;;;;;;;;;;10.80;71.99;100286.02;107657;1254;125292;-79
2023/04/13 05:36:17;;;;;;;;;;;;;;;10.81;71.75;100283.94;107937;1254;67489;-79
2023/04/13 05:38:44;;;;;;;;;;;;;;;10.82;71.49;100283.08;108200;1257;125420;-79
2023/04/13 05:41:11;;;;;;;;;;;;;;;10.89;71.53;100278.45;108169;1254;61185;-79
2023/04/13 05:43:38;;;;;;;;;;;;;;;10.98;71.39;100285.27;108019;1254;60121;-79
2023/04/13 05:46:06;;;;;;;;;;;;;;;11.02;71.07;100282.86;108047;1254;125293;-79
2023/04/13 05:48:33;;;;;;;;;;;;;;;11.01;70.87;100283.90;108115;1254;64566;-80
2023/04/13 05:51:00;;;;;;;;;;;;;;;11.03;70.87;100282.35;107795;1260;124814;-81
2023/04/13 05:53:33;;;;;;;;;;;;;;;11.12;70.79;100285.13;108176;1254;61030;-81
2023/04/13 05:56:01;;;;;;;;;;;;;;;11.19;70.62;100284.17;107959;1253;60437;-81
2023/04/13 05:58:28;;;;;;;;;;;;;;;11.21;70.44;100285.09;107793;1254;124590;-81
2023/04/13 06:00:57;;;;;;;;;;;;;;;11.23;70.24;100283.19;107607;1254;67083;-81
2023/04/13 06:03:26;;;;;;;;;;;;;;;11.27;70.19;100283.42;107457;1254;124249;-81
2023/04/13 06:05:53;;;;;;;;;;;;;;;11.36;70.19;100283.89;107739;1254;62124;-82
2023/04/13 06:08:22;;;;;;;;;;;;;;;11.45;70.38;100283.33;107949;1254;124289;-80
2023/04/13 06:10:51;;;;;;;;;;;;;;;11.54;70.15;100284.84;107701;1254;75217;-81
2023/04/13 06:13:18;;;;;;;;;;;;;;;11.56;69.94;100280.67;107891;1254;67088;-81
2023/04/13 06:15:45;;;;;;;;;;;;;;;11.58;69.83;100279.80;107806;1253;124129;-80
2023/04/13 06:18:12;;;;;;;;;;;;;;;11.60;69.67;100283.35;107823;1254;59307;-80
2023/04/13 06:20:39;;;;;;;;;;;;;;;11.63;69.69;100280.58;107959;1254;124468;-80
2023/04/13 06:23:06;;;;;;;;;;;;;;;11.69;69.53;100284.70;107951;1254;74723;-80
2023/04/13 06:25:33;;;;;;;;;;;;;;;11.67;69.29;100285.55;108035;1254;65097;-80
2023/04/13 06:28:01;;;;;;;;;;;;;;;11.59;69.18;100282.29;107838;1254;124575;-80
2023/04/13 06:30:28;;;;;;;;;;;;;;;11.56;69.07;100289.98;108023;1254;60835;-80
2023/04/13 06:32:55;;;;;;;;;;;;;;;11.51;69.01;100294.47;107452;1257;124841;-80
2023/04/13 06:35:22;;;;;;;;;;;;;;;11.45;68.96;100298.79;107692;1254;73350;-80
2023/04/13 06:37:49;;;;;;;;;;;;;;;11.45;69.11;100302.64;107692;1254;67064;-80
2023/04/13 06:40:16;;;;;;;;;;;;;;;11.44;69.02;100298.76;107741;1254;124164;-80
2023/04/13 06:42:46;;;;;;;;;;;;;;;11.42;68.97;100294.17;107970;1257;60974;-80
2023/04/13 06:45:13;;;;;;;;;;;;;;;11.40;69.11;100299.24;108039;1254;124219;-80
2023/04/13 06:47:40;;;;;;;;;;;;;;;11.48;69.34;100297.94;107826;1254;73931;-80
2023/04/13 06:50:08;;;;;;;;;;;;;;;11.53;69.13;100292.73;107644;1254;65850;-80
2023/04/13 06:52:41;;;;;;;;;;;;;;;11.50;69.03;100287.60;107745;1254;124217;-80
2023/04/13 06:55:08;;;;;;;;;;;;;;;11.50;68.97;100287.09;107495;1254;62242;-80
2023/04/13 06:57:35;;;;;;;;;;;;;;;11.51;69.00;100288.15;107519;1254;124498;-80
2023/04/13 07:00:05;;;;;;;;;;;;;;;11.53;68.98;100289.40;107696;1254;74768;-81
2023/04/13 07:02:32;;;;;;;;;;;;;;;11.51;68.94;100290.44;107782;1254;124879;-80
2023/04/13 07:04:59;;;;;;;;;;;;;;;11.49;68.97;100299.17;107823;1254;72685;-80
2023/04/13 07:07:26;;;;;;;;;;;;;;;11.47;69.02;100294.77;107752;1254;59229;-80
2023/04/13 07:09:53;;;;;;;;;;;;;;;11.52;69.14;100294.50;107807;1254;125211;-79
2023/04/13 07:12:20;;;;;;;;;;;;;;;11.52;68.89;100289.73;108024;1255;73030;-79
2023/04/13 07:14:48;;;;;;;;;;;;;;;11.55;69.03;100290.66;108058;1259;124788;-79
2023/04/13 07:17:15;;;;;;;;;;;;;;;11.66;69.26;100288.00;108010;1254;72932;-81
2023/04/13 07:19:48;;;;;;;;;;;;;;;11.73;69.10;100292.46;107913;1257;59977;-81
2023/04/13 07:22:16;;;;;;;;;;;;;;;11.77;69.10;100291.83;107623;1254;124828;-81
2023/04/13 07:24:43;;;;;;;;;;;;;;;11.82;68.73;100293.84;107383;1256;74681;-81
2023/04/13 07:27:10;;;;;;;;;;;;;;;11.84;68.77;100295.96;107609;1254;124507;-81
2023/04/13 07:29:37;;;;;;;;;;;;;;;11.89;68.76;100290.77;107811;1254;71210;-81
2023/04/13 07:32:07;;;;;;;;;;;;;;;11.93;68.57;100289.60;108005;1254;61563;-81
2023/04/13 07:34:36;;;;;;;;;;;;;;;11.93;68.32;100284.50;107625;1253;123876;-81
2023/04/13 07:37:03;;;;;;;;;;;;;;;11.86;67.94;100282.97;108008;1253;73804;-81
2023/04/13 07:39:31;;;;;;;;;;;;;;;11.85;68.03;100281.73;107694;1257;124153;-81
2023/04/13 07:41:58;;;;;;;;;;;;;;;11.89;68.06;100281.96;107717;1254;73258;-80
2023/04/13 07:44:25;;;;;;;;;;;;;;;11.94;68.16;100287.33;107887;1253;124443;-79
2023/04/13 07:46:55;;;;;;;;;;;;;;;11.95;67.89;100288.05;107955;1254;62159;-81
2023/04/13 07:49:22;;;;;;;;;;;;;;;11.98;67.82;100291.06;108012;1254;73921;-81
2023/04/13 07:51:51;;;;;;;;;;;;;;;12.01;67.71;100290.75;107940;1256;124781;-81
2023/04/13 07:54:18;;;;;;;;;;;;;;;12.04;67.62;100288.67;107890;1253;72654;-81
2023/04/13 07:56:46;;;;;;;;;;;;;;;12.08;67.14;100286.95;108828;1254;124589;-81
2023/04/13 07:59:13;;;;;;;;;;;;;;;12.10;67.07;100287.68;109036;1254;59401;-79
2023/04/13 08:01:40;;;;;;;;;;;;;;;12.13;67.02;100289.65;109007;1254;73406;-79
2023/04/13 08:04:07;;;;;;;;;;;;;;;12.16;66.85;100287.40;108316;1254;124824;-79
2023/04/13 08:06:33;;;;;;;;;;;;;;;12.22;66.95;100285.36;107903;1254;72571;-79
2023/04/13 08:09:00;;;;;;;;;;;;;;;12.34;66.90;100284.95;107814;1254;125220;-79
2023/04/13 08:11:27;;;;;;;;;;;;;;;12.44;66.47;100285.05;107891;1254;60058;-79
2023/04/13 08:13:55;;;;;;;;;;;;;;;12.54;66.48;100282.69;107825;1254;73479;-81
2023/04/13 08:16:22;;;;;;;;;;;;;;;12.67;66.21;100279.81;107467;1254;124853;-79
2023/04/13 08:18:49;;;;;;;;;;;;;;;12.78;65.94;100280.43;107772;1253;72194;-79
2023/04/13 08:21:16;;;;;;;;;;;;;;;12.88;65.79;100285.27;107856;1254;124356;-81
2023/04/13 08:23:43;;;;;;;;;;;;;;;13.04;65.70;100285.04;108016;1253;59483;-81
2023/04/13 08:26:17;;;;;;;;;;;;;;;13.19;65.43;100288.52;107925;1254;74597;-81
2023/04/13 08:28:45;;;;;;;;;;;;;;;13.35;65.08;100288.98;107999;1253;65177;-81
2023/04/13 08:31:12;;;;;;;;;;;;;;;13.47;64.53;100292.94;107662;1254;71390;-81
2023/04/13 08:33:41;;;;;;;;;;;;;;;13.62;64.31;100293.89;107359;1257;124318;-81
2023/04/13 08:36:08;;;;;;;;;;;;;;;13.76;63.94;100288.86;107566;1253;60395;-81
2023/04/13 08:38:36;;;;;;;;;;;;;;;13.90;63.61;100292.45;107245;1254;124315;-81
2023/04/13 08:41:03;;;;;;;;;;;;;;;13.94;63.12;100294.92;107584;1254;66568;-82
2023/04/13 08:43:31;;;;;;;;;;;;;;;13.97;62.76;100298.29;107620;1254;73241;-81
2023/04/13 08:46:18;;;;;;;;;;;;;;;14.03;62.67;100298.48;107702;1254;124341;-81
2023/04/13 08:48:48;;;;;;;;;;;;;;;14.25;62.91;100299.27;107793;1253;62020;-82
2023/04/13 08:51:18;;;;;;;;;;;;;;;14.47;62.64;100297.90;107670;1253;124664;-83
2023/04/13 08:53:46;;;;;;;;;;;;;;;14.67;62.40;100296.90;107781;1253;65920;-83
2023/04/13 08:56:14;;;;;;;;;;;;;;;14.88;62.26;100298.16;107598;1257;71168;-82
2023/04/13 08:58:44;;;;;;;;;;;;;;;15.07;61.84;100294.44;107604;1253;61406;-81
2023/04/13 09:01:12;;;;;;;;;;;;;;;15.13;61.18;100288.43;107660;1254;60767;-81
2023/04/13 09:03:42;;;;;;;;;;;;;;;15.22;61.19;100285.95;107359;1256;124347;-82
2023/04/13 09:06:10;;;;;;;;;;;;;;;15.39;60.86;100286.60;107824;1254;66781;-82
2023/04/13 09:08:38;;;;;;;;;;;;;;;15.49;60.42;100289.06;107862;1253;124690;-81
2023/04/13 09:11:06;;;;;;;;;;;;;;;15.58;60.15;100289.22;107900;1253;61423;-81
2023/04/13 09:13:33;;;;;;;;;;;;;;;15.68;59.99;100290.42;107847;1254;59394;-81
2023/04/13 09:16:02;;;;;;;;;;;;;;;15.66;59.39;100292.02;107921;1254;124797;-81
2023/04/13 09:18:36;;;;;;;;;;;;;;;15.64;59.20;100291.32;107856;1259;65651;-82
2023/04/13 09:21:03;;;;;;;;;;;;;;;15.64;58.93;100293.27;107476;1254;124070;-81
2023/04/13 09:23:30;;;;;;;;;;;;;;;15.67;58.52;100290.78;107525;1254;61230;-83
2023/04/13 09:26:03;;;;;;;;;;;;;;;15.63;58.14;100293.98;107853;1254;61407;-81
2023/04/13 09:28:31;;;;;;;;;;;;;;;15.62;58.13;100299.98;107525;1256;124111;-82
2023/04/13 09:31:03;;;;;;;;;;;;;;;15.70;58.11;100296.96;107651;1254;67460;-82
2023/04/13 09:33:34;;;;;;;;;;;;;;;15.83;57.76;100292.88;107334;1254;124267;-82
2023/04/13 09:36:09;;;;;;;;;;;;;;;15.85;57.02;100294.99;107437;1254;59972;-81
2023/04/13 09:38:36;;;;;;;;;;;;;;;15.79;56.37;100291.66;107486;1254;124366;-82
2023/04/13 09:41:03;;;;;;;;;;;;;;;15.79;56.47;100295.02;107315;1254;428858;-82
2023/04/13 09:43:36;;;;;;;;;;;;;;;15.84;56.48;100289.87;107545;1254;67167;-82
2023/04/13 09:46:13;;;;;;;;;;;;;;;15.82;56.03;100286.88;107412;1254;124644;-82
2023/04/13 09:48:40;;;;;;;;;;;;;;;15.87;55.93;100291.27;107690;1254;61208;-82
2023/04/13 09:51:08;;;;;;;;;;;;;;;15.81;54.89;100289.17;107869;1254;60485;-81
2023/04/13 09:53:41;;;;;;;;;;;;;;;15.74;54.51;100288.30;107869;1254;75429;-81
2023/04/13 09:56:08;;;;;;;;;;;;;;;15.76;54.66;100287.96;107837;1254;65631;-81
2023/04/13 09:58:36;;;;;;;;;;;;;;;15.76;54.79;100290.08;107638;1254;124153;-82
2023/04/13 10:01:03;;;;;;;;;;;;;;;15.67;54.33;100289.01;107509;1254;61193;-83
2023/04/13 10:03:32;;;;;;;;;;;;;;;15.57;54.45;100289.40;107361;1254;124844;-82
2023/04/13 10:05:59;;;;;;;;;;;;;;;15.48;54.35;100293.30;107466;1254;74183;-82
2023/04/13 10:08:26;;;;;;;;;;;;;;;15.43;54.41;100289.09;107307;1254;124236;-82
2023/04/13 10:10:53;;;;;;;;;;;;;;;15.44;54.61;100294.91;107349;1257;72722;-82
2023/04/13 10:13:25;;;;;;;;;;;;;;;15.48;54.92;100301.27;107407;1254;61372;-82
2023/04/13 10:16:12;;;;;;;;;;;;;;;15.51;54.80;100299.86;107280;1254;124085;-82
2023/04/13 10:18:58;;;;;;;;;;;;;;;15.57;54.70;100298.59;107488;1254;73479;-82
2023/04/13 10:21:28;;;;;;;;;;;;;;;15.73;54.67;100293.08;107402;1254;124462;-82
2023/04/13 10:23:55;;;;;;;;;;;;;;;15.94;54.38;100295.14;107593;1254;72714;-83
2023/04/13 10:26:31;;;;;;;;;;;;;;;16.04;54.00;100292.62;107526;1254;124714;-81
2023/04/13 10:28:58;;;;;;;;;;;;;;;16.13;53.87;100296.64;107526;1254;62232;-83
2023/04/13 10:31:47;;;;;;;;;;;;;;;16.30;53.64;100292.64;107557;1256;73369;-82
2023/04/13 10:34:24;;;;;;;;;;;;;;;16.39;53.31;100291.20;107387;1254;124189;-82
2023/04/13 10:36:54;;;;;;;;;;;;;;;16.43;53.46;100291.87;107561;1254;72742;-83
2023/04/13 10:39:26;;;;;;;;;;;;;;;16.47;53.15;100293.79;107790;1254;124424;-83
2023/04/13 10:42:07;;;;;;;;;;;;;;;16.45;52.75;100294.15;108092;1254;60482;-86
2023/04/13 10:44:43;;;;;;;;;;;;;;;16.41;52.73;100292.23;107553;1254;124286;-84
2023/04/13 10:47:11;;;;;;;;;;;;;;;16.41;52.48;100294.54;107670;1260;67021;-83
2023/04/13 10:49:39;;;;;;;;;;;;;;;16.41;52.14;100294.54;107517;1254;71431;-83
2023/04/13 10:52:08;;;;;;;;;;;;;;;16.44;52.18;100294.89;107521;1260;124255;-84
2023/04/13 10:54:35;;;;;;;;;;;;;;;16.49;52.26;100296.09;107482;1254;59778;-83
2023/04/13 10:57:03;;;;;;;;;;;;;;;16.57;52.09;100298.16;107609;1259;124467;-80
2023/04/13 10:59:39;;;;;;;;;;;;;;;16.62;51.87;100305.91;107712;1257;67519;-82
2023/04/13 11:02:10;;;;;;;;;;;;;;;16.58;51.23;100303.10;107843;1254;72749;-79
2023/04/13 11:04:38;;;;;;;;;;;;;;;16.52;51.20;100301.38;108983;1254;124163;-81
2023/04/13 11:07:06;;;;;;;;;;;;;;;16.45;51.29;100306.20;108832;1254;62450;-81
2023/04/13 11:09:33;;;;;;;;;;;;;;;16.41;51.11;100310.84;107815;1256;124731;-81
2023/04/13 11:12:00;;;;;;;;;;;;;;;16.36;50.76;100310.86;107548;1256;66940;-81
2023/04/13 11:14:27;;;;;;;;;;;;;;;16.24;50.41;100313.77;107678;1254;124894;-80
2023/04/13 11:16:56;;;;;;;;;;;;;;;16.05;50.20;100311.02;107783;1260;61256;-80
2023/04/13 11:19:23;;;;;;;;;;;;;;;15.91;50.29;100312.50;107780;1260;60453;-81
2023/04/13 11:21:54;;;;;;;;;;;;;;;15.82;50.26;100311.99;107747;1254;124167;-80
2023/04/13 11:24:28;;;;;;;;;;;;;;;15.79;50.41;100310.60;107488;1254;65796;-82
2023/04/13 11:26:56;;;;;;;;;;;;;;;15.80;49.90;100309.35;107400;1254;73214;-80
2023/04/13 11:29:23;;;;;;;;;;;;;;;15.81;50.12;100306.15;107482;1254;61222;-80
2023/04/13 11:31:50;;;;;;;;;;;;;;;15.83;50.16;100311.63;108771;1253;59527;-80
2023/04/13 11:34:25;;;;;;;;;;;;;;;15.81;50.05;100309.69;108492;1260;124753;-80
2023/04/13 11:37:01;;;;;;;;;;;;;;;15.84;49.93;100308.45;107530;1254;66766;-80
2023/04/13 11:39:28;;;;;;;;;;;;;;;15.81;49.34;100311.29;107404;1254;124821;-80
2023/04/13 11:41:56;;;;;;;;;;;;;;;15.79;49.37;100311.48;107765;1254;59455;-80
2023/04/13 11:44:23;;;;;;;;;;;;;;;15.81;48.82;100307.59;107849;1253;60876;-80
2023/04/13 11:46:51;;;;;;;;;;;;;;;15.79;48.40;100310.58;108929;1257;124403;-80
2023/04/13 11:49:19;;;;;;;;;;;;;;;15.77;48.65;100311.66;107608;1254;65747;-80
2023/04/13 11:51:47;;;;;;;;;;;;;;;15.79;48.75;100315.19;107734;1254;124816;-80
2023/04/13 11:54:15;;;;;;;;;;;;;;;15.81;48.74;100321.37;107750;1254;62208;-80
2023/04/13 11:56:44;;;;;;;;;;;;;;;15.83;48.48;100317.65;107426;1254;125006;-80
2023/04/13 12:01:50;;;;;;;;;;;;;;;15.80;47.98;100310.94;104385;1292;600046;-83
2023/04/13 12:04:17;;;;;;;;;;;;;;;15.71;47.44;100310.58;106662;1269;123961;-81
2023/04/13 12:06:46;;;;;;;;;;;;;;;15.58;47.37;100314.16;106596;1269;60082;-81
2023/04/13 12:09:13;;;;;;;;;;;;;;;15.48;47.45;100316.30;106477;1269;123526;-81
2023/04/13 12:11:41;;;;;;;;;;;;;;;15.40;47.43;100320.92;106769;1269;66153;-79
2023/04/13 12:14:17;;;;;;;;;;;;;;;15.32;47.35;100320.39;106855;1272;71340;-79
2023/04/13 12:16:46;;;;;;;;;;;;;;;15.33;47.43;100319.15;107113;1269;123661;-79
2023/04/13 12:19:13;;;;;;;;;;;;;;;15.45;47.48;100320.56;107412;1264;60268;-78
2023/04/13 12:21:51;;;;;;;;;;;;;;;15.63;47.21;100318.03;107077;1268;123437;-79
2023/04/13 12:24:18;;;;;;;;;;;;;;;15.78;46.98;100315.89;107069;1266;65635;-79
2023/04/13 12:26:45;;;;;;;;;;;;;;;15.93;46.78;100312.31;107089;1263;123870;-79
2023/04/13 12:29:12;;;;;;;;;;;;;;;16.08;46.79;100305.34;107188;1266;57854;-79
2023/04/13 12:31:39;;;;;;;;;;;;;;;16.28;46.81;100301.34;107238;1263;60251;-79
2023/04/13 12:34:06;;;;;;;;;;;;;;;16.42;46.86;100302.67;107277;1267;123941;-79
2023/04/13 12:36:35;;;;;;;;;;;;;;;16.50;46.82;100306.52;107504;1268;67104;-80
2023/04/13 12:39:03;;;;;;;;;;;;;;;16.56;46.85;100307.73;107728;1261;124244;-82